sensor_id;sensor_type;location;lat;lon;timestamp;temperature;humidity
40323;DHT22;26030;51.164;17.100;2023-06-26T00:04:21;27.00;57.00
40323;DHT22;26030;51.164;17.100;2023-06-26T00:09:27;26.90;57.30
40323;DHT22;26030;51.164;17.100;2023-06-26T00:14:35;26.90;57.40
40323;DHT22;26030;51.164;17.100;2023-06-26T00:19:39;26.90;57.30
40323;DHT22;26030;51.164;17.100;2023-06-26T00:24:43;26.90;57.40
40323;DHT22;26030;51.164;17.100;2023-06-26T00:29:50;26.80;57.60
40323;DHT22;26030;51.164;17.100;2023-06-26T00:34:56;26.70;57.70
40323;DHT22;26030;51.164;17.100;2023-06-26T00:40:00;26.60;57.70
40323;DHT22;26030;51.164;17.100;2023-06-26T00:45:05;26.60;58.30
40323;DHT22;26030;51.164;17.100;2023-06-26T00:50:11;26.50;58.00
40323;DHT22;26030;51.164;17.100;2023-06-26T00:55:15;26.60;58.00
40323;DHT22;26030;51.164;17.100;2023-06-26T01:00:20;26.60;58.10
40323;DHT22;26030;51.164;17.100;2023-06-26T01:05:24;26.50;58.30
40323;DHT22;26030;51.164;17.100;2023-06-26T01:10:30;26.50;58.20
40323;DHT22;26030;51.164;17.100;2023-06-26T01:15:35;26.50;58.20
40323;DHT22;26030;51.164;17.100;2023-06-26T01:20:39;26.60;57.90
40323;DHT22;26030;51.164;17.100;2023-06-26T01:25:58;26.60;57.90
40323;DHT22;26030;51.164;17.100;2023-06-26T01:31:19;27.00;57.20
40323;DHT22;26030;51.164;17.100;2023-06-26T01:36:24;26.80;57.50
40323;DHT22;26030;51.164;17.100;2023-06-26T01:41:29;26.70;57.80
40323;DHT22;26030;51.164;17.100;2023-06-26T01:51:58;26.50;58.30
40323;DHT22;26030;51.164;17.100;2023-06-26T01:57:11;26.60;58.30
40323;DHT22;26030;51.164;17.100;2023-06-26T02:02:16;26.50;58.40
40323;DHT22;26030;51.164;17.100;2023-06-26T02:07:21;26.40;58.70
40323;DHT22;26030;51.164;17.100;2023-06-26T02:12:25;26.50;58.30
40323;DHT22;26030;51.164;17.100;2023-06-26T02:17:30;26.40;58.50
40323;DHT22;26030;51.164;17.100;2023-06-26T02:22:34;26.40;58.50
40323;DHT22;26030;51.164;17.100;2023-06-26T02:27:38;26.40;58.60
40323;DHT22;26030;51.164;17.100;2023-06-26T02:32:43;26.40;58.60
40323;DHT22;26030;51.164;17.100;2023-06-26T02:37:47;26.50;58.70
40323;DHT22;26030;51.164;17.100;2023-06-26T02:42:51;26.30;59.00
40323;DHT22;26030;51.164;17.100;2023-06-26T02:47:56;26.50;58.60
40323;DHT22;26030;51.164;17.100;2023-06-26T02:53:00;26.40;58.90
40323;DHT22;26030;51.164;17.100;2023-06-26T02:58:04;26.30;58.70
40323;DHT22;26030;51.164;17.100;2023-06-26T03:03:09;26.20;59.30
40323;DHT22;26030;51.164;17.100;2023-06-26T03:08:13;26.20;59.10
40323;DHT22;26030;51.164;17.100;2023-06-26T03:13:17;26.30;59.40
40323;DHT22;26030;51.164;17.100;2023-06-26T03:18:21;26.40;58.70
40323;DHT22;26030;51.164;17.100;2023-06-26T03:23:25;26.50;58.40
40323;DHT22;26030;51.164;17.100;2023-06-26T03:28:29;26.60;57.90
40323;DHT22;26030;51.164;17.100;2023-06-26T03:33:35;26.50;58.20
40323;DHT22;26030;51.164;17.100;2023-06-26T03:38:39;26.30;59.00
40323;DHT22;26030;51.164;17.100;2023-06-26T03:43:43;26.20;59.10
40323;DHT22;26030;51.164;17.100;2023-06-26T03:48:54;26.20;59.30
40323;DHT22;26030;51.164;17.100;2023-06-26T03:53:59;26.10;59.50
40323;DHT22;26030;51.164;17.100;2023-06-26T03:59:03;26.00;59.50
40323;DHT22;26030;51.164;17.100;2023-06-26T04:04:07;26.10;59.40
40323;DHT22;26030;51.164;17.100;2023-06-26T04:09:12;26.10;59.40
40323;DHT22;26030;51.164;17.100;2023-06-26T04:14:17;26.20;59.10
40323;DHT22;26030;51.164;17.100;2023-06-26T04:19:21;26.30;58.90
40323;DHT22;26030;51.164;17.100;2023-06-26T04:24:25;26.30;59.00
40323;DHT22;26030;51.164;17.100;2023-06-26T04:29:29;26.30;59.00
40323;DHT22;26030;51.164;17.100;2023-06-26T04:34:33;26.30;58.80
40323;DHT22;26030;51.164;17.100;2023-06-26T04:39:39;26.30;58.80
40323;DHT22;26030;51.164;17.100;2023-06-26T04:44:43;26.10;59.10
40323;DHT22;26030;51.164;17.100;2023-06-26T04:49:48;26.10;59.50
40323;DHT22;26030;51.164;17.100;2023-06-26T04:54:52;26.10;59.50
40323;DHT22;26030;51.164;17.100;2023-06-26T04:59:56;26.10;59.60
40323;DHT22;26030;51.164;17.100;2023-06-26T05:05:00;26.10;59.50
40323;DHT22;26030;51.164;17.100;2023-06-26T05:10:04;26.00;59.50
40323;DHT22;26030;51.164;17.100;2023-06-26T05:15:09;26.00;59.70
40323;DHT22;26030;51.164;17.100;2023-06-26T05:20:13;26.00;59.90
40323;DHT22;26030;51.164;17.100;2023-06-26T05:25:18;26.10;60.20
40323;DHT22;26030;51.164;17.100;2023-06-26T05:30:25;26.10;60.30
40323;DHT22;26030;51.164;17.100;2023-06-26T05:35:29;26.20;60.10
40323;DHT22;26030;51.164;17.100;2023-06-26T05:40:34;26.20;59.70
40323;DHT22;26030;51.164;17.100;2023-06-26T05:45:39;26.10;60.40
40323;DHT22;26030;51.164;17.100;2023-06-26T05:50:44;26.20;60.40
40323;DHT22;26030;51.164;17.100;2023-06-26T05:55:49;26.30;60.70
40323;DHT22;26030;51.164;17.100;2023-06-26T06:00:53;26.30;60.60
40323;DHT22;26030;51.164;17.100;2023-06-26T06:05:57;26.30;60.40
40323;DHT22;26030;51.164;17.100;2023-06-26T06:11:01;26.40;60.20
40323;DHT22;26030;51.164;17.100;2023-06-26T06:16:06;26.40;60.90
40323;DHT22;26030;51.164;17.100;2023-06-26T06:21:10;26.40;60.80
40323;DHT22;26030;51.164;17.100;2023-06-26T06:26:14;26.40;61.00
40323;DHT22;26030;51.164;17.100;2023-06-26T06:31:18;26.50;61.40
40323;DHT22;26030;51.164;17.100;2023-06-26T06:36:22;26.50;60.80
40323;DHT22;26030;51.164;17.100;2023-06-26T06:41:26;26.50;61.10
40323;DHT22;26030;51.164;17.100;2023-06-26T06:46:31;26.60;60.60
40323;DHT22;26030;51.164;17.100;2023-06-26T06:51:35;26.50;60.50
40323;DHT22;26030;51.164;17.100;2023-06-26T06:56:40;26.60;59.70
40323;DHT22;26030;51.164;17.100;2023-06-26T07:01:44;26.80;59.50
40323;DHT22;26030;51.164;17.100;2023-06-26T07:06:48;26.70;59.20
40323;DHT22;26030;51.164;17.100;2023-06-26T07:11:52;26.60;59.60
40323;DHT22;26030;51.164;17.100;2023-06-26T07:16:56;26.60;59.70
40323;DHT22;26030;51.164;17.100;2023-06-26T07:22:00;26.50;59.80
40323;DHT22;26030;51.164;17.100;2023-06-26T07:27:05;26.70;59.60
40323;DHT22;26030;51.164;17.100;2023-06-26T07:32:09;26.80;59.50
40323;DHT22;26030;51.164;17.100;2023-06-26T07:37:18;26.70;60.00
40323;DHT22;26030;51.164;17.100;2023-06-26T07:42:22;26.70;59.80
40323;DHT22;26030;51.164;17.100;2023-06-26T07:47:26;26.70;59.80
40323;DHT22;26030;51.164;17.100;2023-06-26T07:52:31;26.80;59.50
40323;DHT22;26030;51.164;17.100;2023-06-26T07:57:35;26.80;59.30
40323;DHT22;26030;51.164;17.100;2023-06-26T08:02:39;26.80;59.20
40323;DHT22;26030;51.164;17.100;2023-06-26T08:07:44;26.80;59.10
40323;DHT22;26030;51.164;17.100;2023-06-26T08:12:48;26.80;59.20
40323;DHT22;26030;51.164;17.100;2023-06-26T08:17:54;26.90;59.40
40323;DHT22;26030;51.164;17.100;2023-06-26T08:22:58;26.90;59.10
40323;DHT22;26030;51.164;17.100;2023-06-26T08:28:03;26.90;58.90
40323;DHT22;26030;51.164;17.100;2023-06-26T08:33:07;26.80;58.90
40323;DHT22;26030;51.164;17.100;2023-06-26T08:38:15;26.90;59.30
40323;DHT22;26030;51.164;17.100;2023-06-26T08:43:24;26.80;58.80
40323;DHT22;26030;51.164;17.100;2023-06-26T08:48:31;26.90;58.40
40323;DHT22;26030;51.164;17.100;2023-06-26T08:53:43;26.90;58.50
40323;DHT22;26030;51.164;17.100;2023-06-26T08:58:54;27.00;58.70
40323;DHT22;26030;51.164;17.100;2023-06-26T09:03:58;26.90;59.00
40323;DHT22;26030;51.164;17.100;2023-06-26T09:09:03;27.00;58.40
40323;DHT22;26030;51.164;17.100;2023-06-26T09:14:07;26.90;58.70
40323;DHT22;26030;51.164;17.100;2023-06-26T09:19:13;26.90;58.50
40323;DHT22;26030;51.164;17.100;2023-06-26T09:24:18;27.00;58.70
40323;DHT22;26030;51.164;17.100;2023-06-26T09:29:22;27.00;58.60
40323;DHT22;26030;51.164;17.100;2023-06-26T09:34:30;27.00;58.50
40323;DHT22;26030;51.164;17.100;2023-06-26T09:39:35;27.00;58.60
40323;DHT22;26030;51.164;17.100;2023-06-26T09:44:46;27.10;58.50
40323;DHT22;26030;51.164;17.100;2023-06-26T09:49:54;27.10;57.50
40323;DHT22;26030;51.164;17.100;2023-06-26T09:55:08;27.10;58.30
40323;DHT22;26030;51.164;17.100;2023-06-26T10:00:14;27.10;58.20
40323;DHT22;26030;51.164;17.100;2023-06-26T10:05:18;27.10;58.20
40323;DHT22;26030;51.164;17.100;2023-06-26T10:10:23;27.20;58.10
40323;DHT22;26030;51.164;17.100;2023-06-26T10:15:28;27.10;58.00
40323;DHT22;26030;51.164;17.100;2023-06-26T10:20:34;27.20;58.40
40323;DHT22;26030;51.164;17.100;2023-06-26T10:25:39;27.20;57.90
40323;DHT22;26030;51.164;17.100;2023-06-26T10:30:46;27.20;57.70
40323;DHT22;26030;51.164;17.100;2023-06-26T10:35:54;27.20;57.60
40323;DHT22;26030;51.164;17.100;2023-06-26T10:41:20;27.30;57.60
40323;DHT22;26030;51.164;17.100;2023-06-26T10:46:29;27.40;57.90
40323;DHT22;26030;51.164;17.100;2023-06-26T10:51:38;27.40;57.60
40323;DHT22;26030;51.164;17.100;2023-06-26T10:56:54;27.40;57.60
40323;DHT22;26030;51.164;17.100;2023-06-26T11:02:06;27.40;57.60
40323;DHT22;26030;51.164;17.100;2023-06-26T11:07:18;27.40;57.20
40323;DHT22;26030;51.164;17.100;2023-06-26T11:13:03;27.40;57.50
40323;DHT22;26030;51.164;17.100;2023-06-26T11:18:09;27.50;56.90
40323;DHT22;26030;51.164;17.100;2023-06-26T11:23:13;27.50;57.00
40323;DHT22;26030;51.164;17.100;2023-06-26T11:28:25;27.50;57.20
40323;DHT22;26030;51.164;17.100;2023-06-26T11:33:31;27.50;57.30
40323;DHT22;26030;51.164;17.100;2023-06-26T11:38:38;27.60;57.50
40323;DHT22;26030;51.164;17.100;2023-06-26T11:43:42;27.60;57.90
40323;DHT22;26030;51.164;17.100;2023-06-26T11:48:47;27.60;58.00
40323;DHT22;26030;51.164;17.100;2023-06-26T11:53:52;27.60;57.60
40323;DHT22;26030;51.164;17.100;2023-06-26T12:04:12;27.70;57.70
40323;DHT22;26030;51.164;17.100;2023-06-26T12:09:21;27.70;58.10
40323;DHT22;26030;51.164;17.100;2023-06-26T12:14:25;27.70;57.70
40323;DHT22;26030;51.164;17.100;2023-06-26T12:19:31;27.70;57.80
40323;DHT22;26030;51.164;17.100;2023-06-26T12:24:37;27.80;57.80
40323;DHT22;26030;51.164;17.100;2023-06-26T12:29:47;27.70;57.80
40323;DHT22;26030;51.164;17.100;2023-06-26T12:34:56;27.80;58.40
40323;DHT22;26030;51.164;17.100;2023-06-26T12:40:01;27.80;57.80
40323;DHT22;26030;51.164;17.100;2023-06-26T12:45:13;27.80;57.60
40323;DHT22;26030;51.164;17.100;2023-06-26T12:50:20;27.90;57.50
40323;DHT22;26030;51.164;17.100;2023-06-26T12:55:25;27.90;57.30
40323;DHT22;26030;51.164;17.100;2023-06-26T13:00:29;27.90;57.20
40323;DHT22;26030;51.164;17.100;2023-06-26T13:05:35;27.90;57.30
40323;DHT22;26030;51.164;17.100;2023-06-26T13:10:39;27.90;57.50
40323;DHT22;26030;51.164;17.100;2023-06-26T13:15:44;27.90;56.90
40323;DHT22;26030;51.164;17.100;2023-06-26T13:20:48;27.90;56.90
40323;DHT22;26030;51.164;17.100;2023-06-26T13:25:53;28.00;57.00
40323;DHT22;26030;51.164;17.100;2023-06-26T13:30:57;28.00;57.20
40323;DHT22;26030;51.164;17.100;2023-06-26T13:36:02;28.00;57.20
40323;DHT22;26030;51.164;17.100;2023-06-26T13:41:09;28.00;56.60
40323;DHT22;26030;51.164;17.100;2023-06-26T13:46:15;28.00;57.50
40323;DHT22;26030;51.164;17.100;2023-06-26T13:51:20;28.00;57.10
40323;DHT22;26030;51.164;17.100;2023-06-26T13:56:24;28.10;57.30
40323;DHT22;26030;51.164;17.100;2023-06-26T14:01:28;28.10;57.60
40323;DHT22;26030;51.164;17.100;2023-06-26T14:06:32;28.10;57.10
40323;DHT22;26030;51.164;17.100;2023-06-26T14:11:39;27.90;56.60
40323;DHT22;26030;51.164;17.100;2023-06-26T14:16:43;27.90;57.00
40323;DHT22;26030;51.164;17.100;2023-06-26T14:21:48;27.90;56.90
40323;DHT22;26030;51.164;17.100;2023-06-26T14:26:52;27.90;56.30
40323;DHT22;26030;51.164;17.100;2023-06-26T14:31:56;28.00;56.30
40323;DHT22;26030;51.164;17.100;2023-06-26T14:37:01;27.90;56.20
40323;DHT22;26030;51.164;17.100;2023-06-26T14:42:05;27.90;56.10
40323;DHT22;26030;51.164;17.100;2023-06-26T14:47:10;27.90;55.90
40323;DHT22;26030;51.164;17.100;2023-06-26T14:52:14;27.90;55.70
40323;DHT22;26030;51.164;17.100;2023-06-26T14:57:18;27.90;55.50
40323;DHT22;26030;51.164;17.100;2023-06-26T15:02:22;27.90;55.60
40323;DHT22;26030;51.164;17.100;2023-06-26T15:07:27;28.10;55.30
40323;DHT22;26030;51.164;17.100;2023-06-26T15:12:31;28.00;56.10
40323;DHT22;26030;51.164;17.100;2023-06-26T15:17:35;27.90;56.40
40323;DHT22;26030;51.164;17.100;2023-06-26T15:22:39;28.10;56.10
40323;DHT22;26030;51.164;17.100;2023-06-26T15:27:44;28.10;56.40
40323;DHT22;26030;51.164;17.100;2023-06-26T15:32:48;28.10;59.30
40323;DHT22;26030;51.164;17.100;2023-06-26T15:37:52;28.20;58.30
40323;DHT22;26030;51.164;17.100;2023-06-26T15:42:57;28.30;58.00
40323;DHT22;26030;51.164;17.100;2023-06-26T15:48:01;28.20;57.90
40323;DHT22;26030;51.164;17.100;2023-06-26T15:53:06;28.10;58.00
40323;DHT22;26030;51.164;17.100;2023-06-26T15:58:10;28.10;59.20
40323;DHT22;26030;51.164;17.100;2023-06-26T16:03:14;28.10;58.90
40323;DHT22;26030;51.164;17.100;2023-06-26T16:08:18;28.30;58.20
40323;DHT22;26030;51.164;17.100;2023-06-26T16:13:24;28.50;57.70
40323;DHT22;26030;51.164;17.100;2023-06-26T16:18:29;28.60;57.90
40323;DHT22;26030;51.164;17.100;2023-06-26T16:23:33;28.60;57.40
40323;DHT22;26030;51.164;17.100;2023-06-26T16:28:37;28.70;57.50
40323;DHT22;26030;51.164;17.100;2023-06-26T16:33:43;28.60;57.60
40323;DHT22;26030;51.164;17.100;2023-06-26T16:38:51;28.70;57.60
40323;DHT22;26030;51.164;17.100;2023-06-26T16:43:55;28.70;57.70
40323;DHT22;26030;51.164;17.100;2023-06-26T16:48:59;28.70;58.00
40323;DHT22;26030;51.164;17.100;2023-06-26T16:54:03;28.80;57.60
40323;DHT22;26030;51.164;17.100;2023-06-26T16:59:08;28.80;57.90
40323;DHT22;26030;51.164;17.100;2023-06-26T17:04:13;28.90;57.60
40323;DHT22;26030;51.164;17.100;2023-06-26T17:09:17;28.90;57.50
40323;DHT22;26030;51.164;17.100;2023-06-26T17:14:21;28.80;56.10
40323;DHT22;26030;51.164;17.100;2023-06-26T17:19:26;28.70;55.60
40323;DHT22;26030;51.164;17.100;2023-06-26T17:24:30;28.60;55.80
40323;DHT22;26030;51.164;17.100;2023-06-26T17:29:41;28.50;56.10
40323;DHT22;26030;51.164;17.100;2023-06-26T17:34:45;28.40;56.30
40323;DHT22;26030;51.164;17.100;2023-06-26T17:39:50;28.40;56.30
40323;DHT22;26030;51.164;17.100;2023-06-26T17:44:55;28.40;56.30
40323;DHT22;26030;51.164;17.100;2023-06-26T17:49:59;28.40;56.70
40323;DHT22;26030;51.164;17.100;2023-06-26T17:55:03;28.50;56.70
40323;DHT22;26030;51.164;17.100;2023-06-26T18:00:08;28.40;56.10
40323;DHT22;26030;51.164;17.100;2023-06-26T18:05:16;28.40;56.10
40323;DHT22;26030;51.164;17.100;2023-06-26T18:10:21;28.30;56.10
40323;DHT22;26030;51.164;17.100;2023-06-26T18:15:25;28.30;56.00
40323;DHT22;26030;51.164;17.100;2023-06-26T18:20:30;28.30;56.10
40323;DHT22;26030;51.164;17.100;2023-06-26T18:25:34;28.30;56.50
40323;DHT22;26030;51.164;17.100;2023-06-26T18:30:38;28.30;56.10
40323;DHT22;26030;51.164;17.100;2023-06-26T18:35:43;28.30;57.00
40323;DHT22;26030;51.164;17.100;2023-06-26T18:40:48;28.30;56.50
40323;DHT22;26030;51.164;17.100;2023-06-26T18:45:54;28.20;56.70
40323;DHT22;26030;51.164;17.100;2023-06-26T18:50:58;28.20;56.50
40323;DHT22;26030;51.164;17.100;2023-06-26T18:56:02;28.10;56.50
40323;DHT22;26030;51.164;17.100;2023-06-26T19:01:06;28.10;56.30
40323;DHT22;26030;51.164;17.100;2023-06-26T19:06:11;27.70;54.70
40323;DHT22;26030;51.164;17.100;2023-06-26T19:11:16;27.10;52.60
40323;DHT22;26030;51.164;17.100;2023-06-26T19:16:21;26.60;51.80
40323;DHT22;26030;51.164;17.100;2023-06-26T19:21:25;26.30;51.00
40323;DHT22;26030;51.164;17.100;2023-06-26T19:26:32;26.00;49.90
40323;DHT22;26030;51.164;17.100;2023-06-26T19:31:38;25.90;48.80
40323;DHT22;26030;51.164;17.100;2023-06-26T19:36:43;25.60;48.00
40323;DHT22;26030;51.164;17.100;2023-06-26T19:41:48;25.40;47.40
40323;DHT22;26030;51.164;17.100;2023-06-26T19:46:53;25.50;47.30
40323;DHT22;26030;51.164;17.100;2023-06-26T19:51:58;25.40;47.90
40323;DHT22;26030;51.164;17.100;2023-06-26T19:57:03;25.50;48.10
40323;DHT22;26030;51.164;17.100;2023-06-26T20:02:09;25.60;46.40
40323;DHT22;26030;51.164;17.100;2023-06-26T20:07:14;25.20;47.40
40323;DHT22;26030;51.164;17.100;2023-06-26T20:12:19;25.10;48.80
40323;DHT22;26030;51.164;17.100;2023-06-26T20:17:23;25.90;47.60
40323;DHT22;26030;51.164;17.100;2023-06-26T20:22:27;26.40;47.20
40323;DHT22;26030;51.164;17.100;2023-06-26T20:27:32;26.60;48.80
40323;DHT22;26030;51.164;17.100;2023-06-26T20:32:36;26.40;52.50
40323;DHT22;26030;51.164;17.100;2023-06-26T20:37:40;26.10;57.00
40323;DHT22;26030;51.164;17.100;2023-06-26T20:42:44;26.20;57.10
40323;DHT22;26030;51.164;17.100;2023-06-26T20:47:49;26.40;60.80
40323;DHT22;26030;51.164;17.100;2023-06-26T20:52:53;26.50;60.50
40323;DHT22;26030;51.164;17.100;2023-06-26T20:57:59;26.70;60.20
40323;DHT22;26030;51.164;17.100;2023-06-26T21:03:03;26.60;60.00
40323;DHT22;26030;51.164;17.100;2023-06-26T21:08:08;26.70;60.70
40323;DHT22;26030;51.164;17.100;2023-06-26T21:13:12;26.70;60.60
40323;DHT22;26030;51.164;17.100;2023-06-26T21:18:16;26.80;60.20
40323;DHT22;26030;51.164;17.100;2023-06-26T21:23:20;26.80;62.60
40323;DHT22;26030;51.164;17.100;2023-06-26T21:28:25;26.80;61.60
40323;DHT22;26030;51.164;17.100;2023-06-26T21:33:29;26.80;61.00
40323;DHT22;26030;51.164;17.100;2023-06-26T21:38:34;26.90;60.40
40323;DHT22;26030;51.164;17.100;2023-06-26T21:43:38;26.80;60.60
40323;DHT22;26030;51.164;17.100;2023-06-26T21:48:42;26.80;61.30
40323;DHT22;26030;51.164;17.100;2023-06-26T21:53:48;26.70;61.00
40323;DHT22;26030;51.164;17.100;2023-06-26T21:58:52;26.70;60.70
40323;DHT22;26030;51.164;17.100;2023-06-26T22:03:56;26.70;60.70
40323;DHT22;26030;51.164;17.100;2023-06-26T22:09:00;26.60;61.90
40323;DHT22;26030;51.164;17.100;2023-06-26T22:14:05;26.50;61.70
40323;DHT22;26030;51.164;17.100;2023-06-26T22:19:09;26.60;62.00
40323;DHT22;26030;51.164;17.100;2023-06-26T22:24:13;26.50;62.00
40323;DHT22;26030;51.164;17.100;2023-06-26T22:29:17;26.60;62.00
40323;DHT22;26030;51.164;17.100;2023-06-26T22:34:21;26.70;62.10
40323;DHT22;26030;51.164;17.100;2023-06-26T22:39:26;26.70;62.10
40323;DHT22;26030;51.164;17.100;2023-06-26T22:44:30;26.60;62.20
40323;DHT22;26030;51.164;17.100;2023-06-26T22:49:34;26.50;62.50
40323;DHT22;26030;51.164;17.100;2023-06-26T22:54:39;26.50;63.00
40323;DHT22;26030;51.164;17.100;2023-06-26T22:59:43;26.40;63.80
40323;DHT22;26030;51.164;17.100;2023-06-26T23:04:47;26.50;63.10
40323;DHT22;26030;51.164;17.100;2023-06-26T23:09:52;26.60;62.50
40323;DHT22;26030;51.164;17.100;2023-06-26T23:14:56;26.50;62.90
40323;DHT22;26030;51.164;17.100;2023-06-26T23:20:00;26.50;63.20
40323;DHT22;26030;51.164;17.100;2023-06-26T23:25:04;26.40;63.70
40323;DHT22;26030;51.164;17.100;2023-06-26T23:30:09;26.40;63.50
40323;DHT22;26030;51.164;17.100;2023-06-26T23:35:14;26.50;63.40
40323;DHT22;26030;51.164;17.100;2023-06-26T23:40:25;26.50;63.80
40323;DHT22;26030;51.164;17.100;2023-06-26T23:45:29;26.40;63.70
40323;DHT22;26030;51.164;17.100;2023-06-26T23:50:36;26.40;63.50
40323;DHT22;26030;51.164;17.100;2023-06-26T23:55:41;26.40;63.60
